sensor_id;sensor_type;location;lat;lon;timestamp;P1;durP1;ratioP1;P2;durP2;ratioP2
6955;SDS011;50345;51.136;16.886;2023-05-07T00:00:36;5.70;;;5.20;;
6955;SDS011;50345;51.136;16.886;2023-05-07T00:03:02;5.23;;;4.73;;
6955;SDS011;50345;51.136;16.886;2023-05-07T00:05:28;5.20;;;4.75;;
6955;SDS011;50345;51.136;16.886;2023-05-07T00:07:53;4.83;;;4.43;;
6955;SDS011;50345;51.136;16.886;2023-05-07T00:10:19;4.93;;;4.50;;
6955;SDS011;50345;51.136;16.886;2023-05-07T00:12:44;4.23;;;3.87;;
6955;SDS011;50345;51.136;16.886;2023-05-07T00:15:10;5.20;;;4.70;;
6955;SDS011;50345;51.136;16.886;2023-05-07T00:17:36;6.10;;;5.30;;
6955;SDS011;50345;51.136;16.886;2023-05-07T00:20:02;5.87;;;3.83;;
6955;SDS011;50345;51.136;16.886;2023-05-07T00:22:29;5.40;;;4.70;;
6955;SDS011;50345;51.136;16.886;2023-05-07T00:24:56;4.38;;;3.92;;
6955;SDS011;50345;51.136;16.886;2023-05-07T00:27:22;5.40;;;3.63;;
6955;SDS011;50345;51.136;16.886;2023-05-07T00:29:47;5.57;;;5.07;;
6955;SDS011;50345;51.136;16.886;2023-05-07T00:32:13;4.00;;;3.70;;
6955;SDS011;50345;51.136;16.886;2023-05-07T00:34:39;4.90;;;4.50;;
6955;SDS011;50345;51.136;16.886;2023-05-07T00:37:05;5.10;;;4.70;;
6955;SDS011;50345;51.136;16.886;2023-05-07T00:39:32;5.65;;;3.78;;
6955;SDS011;50345;51.136;16.886;2023-05-07T00:41:58;4.53;;;4.10;;
6955;SDS011;50345;51.136;16.886;2023-05-07T00:44:25;5.03;;;4.55;;
6955;SDS011;50345;51.136;16.886;2023-05-07T00:46:51;4.32;;;3.92;;
6955;SDS011;50345;51.136;16.886;2023-05-07T00:49:18;6.15;;;4.03;;
6955;SDS011;50345;51.136;16.886;2023-05-07T00:51:44;4.53;;;3.60;;
6955;SDS011;50345;51.136;16.886;2023-05-07T00:54:10;4.35;;;4.03;;
6955;SDS011;50345;51.136;16.886;2023-05-07T00:56:37;5.00;;;4.50;;
6955;SDS011;50345;51.136;16.886;2023-05-07T00:59:04;5.25;;;3.60;;
6955;SDS011;50345;51.136;16.886;2023-05-07T01:01:31;3.60;;;3.38;;
6955;SDS011;50345;51.136;16.886;2023-05-07T01:03:56;3.90;;;3.60;;
6955;SDS011;50345;51.136;16.886;2023-05-07T01:06:22;4.43;;;4.13;;
6955;SDS011;50345;51.136;16.886;2023-05-07T01:08:50;4.68;;;3.88;;
6955;SDS011;50345;51.136;16.886;2023-05-07T01:11:17;4.18;;;3.85;;
6955;SDS011;50345;51.136;16.886;2023-05-07T01:13:45;5.15;;;4.75;;
6955;SDS011;50345;51.136;16.886;2023-05-07T01:16:12;3.95;;;3.65;;
6955;SDS011;50345;51.136;16.886;2023-05-07T01:18:38;4.80;;;4.10;;
6955;SDS011;50345;51.136;16.886;2023-05-07T01:21:04;5.93;;;4.57;;
6955;SDS011;50345;51.136;16.886;2023-05-07T01:23:30;4.53;;;4.13;;
6955;SDS011;50345;51.136;16.886;2023-05-07T01:25:55;4.60;;;4.20;;
6955;SDS011;50345;51.136;16.886;2023-05-07T01:28:21;5.10;;;4.70;;
6955;SDS011;50345;51.136;16.886;2023-05-07T01:30:52;5.07;;;4.67;;
6955;SDS011;50345;51.136;16.886;2023-05-07T01:33:21;5.85;;;4.55;;
6955;SDS011;50345;51.136;16.886;2023-05-07T01:35:48;4.50;;;4.20;;
6955;SDS011;50345;51.136;16.886;2023-05-07T01:38:17;6.00;;;4.35;;
6955;SDS011;50345;51.136;16.886;2023-05-07T01:40:43;4.40;;;4.05;;
6955;SDS011;50345;51.136;16.886;2023-05-07T01:43:10;5.10;;;4.57;;
6955;SDS011;50345;51.136;16.886;2023-05-07T01:45:35;4.10;;;3.80;;
6955;SDS011;50345;51.136;16.886;2023-05-07T01:48:01;5.70;;;5.23;;
6955;SDS011;50345;51.136;16.886;2023-05-07T01:50:28;4.68;;;4.35;;
6955;SDS011;50345;51.136;16.886;2023-05-07T01:52:54;5.97;;;5.03;;
6955;SDS011;50345;51.136;16.886;2023-05-07T01:55:20;4.73;;;4.33;;
6955;SDS011;50345;51.136;16.886;2023-05-07T01:57:46;5.20;;;4.70;;
6955;SDS011;50345;51.136;16.886;2023-05-07T02:00:12;4.80;;;4.37;;
6955;SDS011;50345;51.136;16.886;2023-05-07T02:02:37;5.30;;;4.90;;
6955;SDS011;50345;51.136;16.886;2023-05-07T02:05:03;5.23;;;4.83;;
6955;SDS011;50345;51.136;16.886;2023-05-07T02:07:29;4.90;;;4.15;;
6955;SDS011;50345;51.136;16.886;2023-05-07T02:09:55;5.60;;;5.10;;
6955;SDS011;50345;51.136;16.886;2023-05-07T02:12:21;5.87;;;5.37;;
6955;SDS011;50345;51.136;16.886;2023-05-07T02:14:47;9.35;;;4.95;;
6955;SDS011;50345;51.136;16.886;2023-05-07T02:17:13;5.67;;;5.23;;
6955;SDS011;50345;51.136;16.886;2023-05-07T02:19:39;6.20;;;5.70;;
6955;SDS011;50345;51.136;16.886;2023-05-07T02:22:04;4.80;;;4.40;;
6955;SDS011;50345;51.136;16.886;2023-05-07T02:24:30;7.30;;;5.27;;
6955;SDS011;50345;51.136;16.886;2023-05-07T02:26:56;5.30;;;4.47;;
6955;SDS011;50345;51.136;16.886;2023-05-07T02:29:21;4.90;;;4.47;;
6955;SDS011;50345;51.136;16.886;2023-05-07T02:31:47;5.77;;;5.20;;
6955;SDS011;50345;51.136;16.886;2023-05-07T02:34:15;4.85;;;4.45;;
6955;SDS011;50345;51.136;16.886;2023-05-07T02:36:44;5.20;;;4.80;;
6955;SDS011;50345;51.136;16.886;2023-05-07T02:39:10;5.40;;;4.90;;
6955;SDS011;50345;51.136;16.886;2023-05-07T02:41:36;6.03;;;5.10;;
6955;SDS011;50345;51.136;16.886;2023-05-07T02:44:02;6.10;;;5.50;;
6955;SDS011;50345;51.136;16.886;2023-05-07T02:46:27;5.63;;;5.13;;
6955;SDS011;50345;51.136;16.886;2023-05-07T02:48:53;5.80;;;5.37;;
6955;SDS011;50345;51.136;16.886;2023-05-07T02:51:19;4.97;;;4.57;;
6955;SDS011;50345;51.136;16.886;2023-05-07T02:53:46;6.32;;;5.50;;
6955;SDS011;50345;51.136;16.886;2023-05-07T02:56:12;6.23;;;5.57;;
6955;SDS011;50345;51.136;16.886;2023-05-07T02:58:38;5.13;;;4.73;;
6955;SDS011;50345;51.136;16.886;2023-05-07T03:01:09;5.72;;;5.30;;
6955;SDS011;50345;51.136;16.886;2023-05-07T03:03:35;6.87;;;5.30;;
6955;SDS011;50345;51.136;16.886;2023-05-07T03:06:00;8.00;;;6.40;;
6955;SDS011;50345;51.136;16.886;2023-05-07T03:08:27;7.28;;;6.38;;
6955;SDS011;50345;51.136;16.886;2023-05-07T03:10:53;6.37;;;5.80;;
6955;SDS011;50345;51.136;16.886;2023-05-07T03:13:19;5.70;;;5.20;;
6955;SDS011;50345;51.136;16.886;2023-05-07T03:15:44;5.10;;;4.60;;
6955;SDS011;50345;51.136;16.886;2023-05-07T03:18:10;5.60;;;5.00;;
6955;SDS011;50345;51.136;16.886;2023-05-07T03:20:36;5.53;;;5.03;;
6955;SDS011;50345;51.136;16.886;2023-05-07T03:23:01;18.10;;;6.60;;
6955;SDS011;50345;51.136;16.886;2023-05-07T03:25:27;9.67;;;6.57;;
6955;SDS011;50345;51.136;16.886;2023-05-07T03:27:54;6.47;;;5.88;;
6955;SDS011;50345;51.136;16.886;2023-05-07T03:30:20;6.83;;;5.53;;
6955;SDS011;50345;51.136;16.886;2023-05-07T03:32:46;7.03;;;5.77;;
6955;SDS011;50345;51.136;16.886;2023-05-07T03:35:12;5.87;;;5.40;;
6955;SDS011;50345;51.136;16.886;2023-05-07T03:37:38;6.00;;;5.40;;
6955;SDS011;50345;51.136;16.886;2023-05-07T03:40:04;5.68;;;5.15;;
6955;SDS011;50345;51.136;16.886;2023-05-07T03:42:30;6.80;;;6.15;;
6955;SDS011;50345;51.136;16.886;2023-05-07T03:44:56;7.33;;;6.57;;
6955;SDS011;50345;51.136;16.886;2023-05-07T03:47:21;7.73;;;6.70;;
6955;SDS011;50345;51.136;16.886;2023-05-07T03:49:47;8.03;;;7.23;;
6955;SDS011;50345;51.136;16.886;2023-05-07T03:52:14;7.60;;;6.50;;
6955;SDS011;50345;51.136;16.886;2023-05-07T03:54:40;6.32;;;5.72;;
6955;SDS011;50345;51.136;16.886;2023-05-07T03:57:05;6.33;;;5.83;;
6955;SDS011;50345;51.136;16.886;2023-05-07T03:59:31;6.03;;;5.07;;
6955;SDS011;50345;51.136;16.886;2023-05-07T04:01:56;6.03;;;5.50;;
6955;SDS011;50345;51.136;16.886;2023-05-07T04:04:22;5.70;;;5.30;;
6955;SDS011;50345;51.136;16.886;2023-05-07T04:06:48;5.53;;;5.10;;
6955;SDS011;50345;51.136;16.886;2023-05-07T04:09:13;5.90;;;5.40;;
6955;SDS011;50345;51.136;16.886;2023-05-07T04:11:39;4.67;;;4.27;;
6955;SDS011;50345;51.136;16.886;2023-05-07T04:14:05;6.30;;;5.03;;
6955;SDS011;50345;51.136;16.886;2023-05-07T04:16:31;6.80;;;6.20;;
6955;SDS011;50345;51.136;16.886;2023-05-07T04:18:56;7.30;;;6.20;;
6955;SDS011;50345;51.136;16.886;2023-05-07T04:21:22;7.73;;;6.97;;
6955;SDS011;50345;51.136;16.886;2023-05-07T04:23:48;7.73;;;7.10;;
6955;SDS011;50345;51.136;16.886;2023-05-07T04:26:14;7.10;;;6.40;;
6955;SDS011;50345;51.136;16.886;2023-05-07T04:28:40;8.10;;;7.30;;
6955;SDS011;50345;51.136;16.886;2023-05-07T04:31:06;7.60;;;6.80;;
6955;SDS011;50345;51.136;16.886;2023-05-07T04:33:32;7.77;;;7.03;;
6955;SDS011;50345;51.136;16.886;2023-05-07T04:35:58;8.85;;;8.05;;
6955;SDS011;50345;51.136;16.886;2023-05-07T04:38:28;7.75;;;6.95;;
6955;SDS011;50345;51.136;16.886;2023-05-07T04:40:55;8.10;;;7.05;;
6955;SDS011;50345;51.136;16.886;2023-05-07T04:43:21;8.07;;;7.30;;
6955;SDS011;50345;51.136;16.886;2023-05-07T04:45:46;6.37;;;5.77;;
6955;SDS011;50345;51.136;16.886;2023-05-07T04:48:12;6.30;;;5.77;;
6955;SDS011;50345;51.136;16.886;2023-05-07T04:50:39;6.10;;;5.60;;
6955;SDS011;50345;51.136;16.886;2023-05-07T04:53:05;8.20;;;6.40;;
6955;SDS011;50345;51.136;16.886;2023-05-07T04:55:31;6.33;;;5.73;;
6955;SDS011;50345;51.136;16.886;2023-05-07T04:57:56;8.03;;;5.40;;
6955;SDS011;50345;51.136;16.886;2023-05-07T05:00:22;5.33;;;4.93;;
6955;SDS011;50345;51.136;16.886;2023-05-07T05:02:48;11.73;;;5.20;;
6955;SDS011;50345;51.136;16.886;2023-05-07T05:05:13;5.57;;;5.07;;
6955;SDS011;50345;51.136;16.886;2023-05-07T05:07:39;5.17;;;4.57;;
6955;SDS011;50345;51.136;16.886;2023-05-07T05:10:04;4.70;;;4.40;;
6955;SDS011;50345;51.136;16.886;2023-05-07T05:12:30;5.30;;;4.82;;
6955;SDS011;50345;51.136;16.886;2023-05-07T05:14:56;4.97;;;4.57;;
6955;SDS011;50345;51.136;16.886;2023-05-07T05:17:22;4.77;;;4.37;;
6955;SDS011;50345;51.136;16.886;2023-05-07T05:19:47;3.90;;;3.60;;
6955;SDS011;50345;51.136;16.886;2023-05-07T05:22:13;4.63;;;3.53;;
6955;SDS011;50345;51.136;16.886;2023-05-07T05:24:38;4.03;;;3.70;;
6955;SDS011;50345;51.136;16.886;2023-05-07T05:27:04;3.13;;;2.83;;
6955;SDS011;50345;51.136;16.886;2023-05-07T05:29:30;4.07;;;3.67;;
6955;SDS011;50345;51.136;16.886;2023-05-07T05:31:56;3.55;;;3.25;;
6955;SDS011;50345;51.136;16.886;2023-05-07T05:34:22;4.00;;;3.70;;
6955;SDS011;50345;51.136;16.886;2023-05-07T05:36:48;4.30;;;4.00;;
6955;SDS011;50345;51.136;16.886;2023-05-07T05:39:13;4.00;;;3.73;;
6955;SDS011;50345;51.136;16.886;2023-05-07T05:41:39;5.10;;;4.40;;
6955;SDS011;50345;51.136;16.886;2023-05-07T05:44:05;4.30;;;3.90;;
6955;SDS011;50345;51.136;16.886;2023-05-07T05:46:31;4.53;;;4.13;;
6955;SDS011;50345;51.136;16.886;2023-05-07T05:48:56;4.00;;;3.67;;
6955;SDS011;50345;51.136;16.886;2023-05-07T05:51:22;4.50;;;4.10;;
6955;SDS011;50345;51.136;16.886;2023-05-07T05:53:48;5.10;;;4.23;;
6955;SDS011;50345;51.136;16.886;2023-05-07T05:56:13;3.80;;;3.50;;
6955;SDS011;50345;51.136;16.886;2023-05-07T05:58:40;4.28;;;3.97;;
6955;SDS011;50345;51.136;16.886;2023-05-07T06:01:06;4.80;;;4.27;;
6955;SDS011;50345;51.136;16.886;2023-05-07T06:03:31;4.47;;;4.13;;
6955;SDS011;50345;51.136;16.886;2023-05-07T06:05:57;4.73;;;4.33;;
6955;SDS011;50345;51.136;16.886;2023-05-07T06:08:23;4.00;;;3.60;;
6955;SDS011;50345;51.136;16.886;2023-05-07T06:10:49;11.73;;;4.57;;
6955;SDS011;50345;51.136;16.886;2023-05-07T06:13:14;4.07;;;3.77;;
6955;SDS011;50345;51.136;16.886;2023-05-07T06:15:40;4.27;;;3.80;;
6955;SDS011;50345;51.136;16.886;2023-05-07T06:18:06;4.33;;;3.23;;
6955;SDS011;50345;51.136;16.886;2023-05-07T06:20:31;3.93;;;3.63;;
6955;SDS011;50345;51.136;16.886;2023-05-07T06:22:57;3.70;;;3.40;;
6955;SDS011;50345;51.136;16.886;2023-05-07T06:25:22;3.43;;;3.13;;
6955;SDS011;50345;51.136;16.886;2023-05-07T06:27:48;3.47;;;3.27;;
6955;SDS011;50345;51.136;16.886;2023-05-07T06:30:13;4.00;;;2.97;;
6955;SDS011;50345;51.136;16.886;2023-05-07T06:32:40;3.63;;;3.43;;
6955;SDS011;50345;51.136;16.886;2023-05-07T06:35:06;4.40;;;3.65;;
6955;SDS011;50345;51.136;16.886;2023-05-07T06:37:31;4.40;;;4.00;;
6955;SDS011;50345;51.136;16.886;2023-05-07T06:39:57;3.30;;;3.10;;
6955;SDS011;50345;51.136;16.886;2023-05-07T06:42:23;3.73;;;3.43;;
6955;SDS011;50345;51.136;16.886;2023-05-07T06:44:48;3.33;;;3.03;;
6955;SDS011;50345;51.136;16.886;2023-05-07T06:47:14;3.93;;;3.63;;
6955;SDS011;50345;51.136;16.886;2023-05-07T06:49:39;4.10;;;3.80;;
6955;SDS011;50345;51.136;16.886;2023-05-07T06:52:05;3.80;;;3.50;;
6955;SDS011;50345;51.136;16.886;2023-05-07T06:54:31;3.80;;;3.50;;
6955;SDS011;50345;51.136;16.886;2023-05-07T06:56:56;5.17;;;3.80;;
6955;SDS011;50345;51.136;16.886;2023-05-07T06:59:22;3.67;;;3.37;;
6955;SDS011;50345;51.136;16.886;2023-05-07T07:01:48;4.35;;;4.05;;
6955;SDS011;50345;51.136;16.886;2023-05-07T07:04:14;4.13;;;3.80;;
6955;SDS011;50345;51.136;16.886;2023-05-07T07:06:39;4.80;;;3.53;;
6955;SDS011;50345;51.136;16.886;2023-05-07T07:09:05;4.37;;;4.07;;
6955;SDS011;50345;51.136;16.886;2023-05-07T07:11:31;3.57;;;3.27;;
6955;SDS011;50345;51.136;16.886;2023-05-07T07:13:56;4.37;;;3.97;;
6955;SDS011;50345;51.136;16.886;2023-05-07T07:16:22;3.80;;;3.50;;
6955;SDS011;50345;51.136;16.886;2023-05-07T07:18:48;3.33;;;3.13;;
6955;SDS011;50345;51.136;16.886;2023-05-07T07:21:13;3.60;;;3.40;;
6955;SDS011;50345;51.136;16.886;2023-05-07T07:23:39;2.87;;;2.67;;
6955;SDS011;50345;51.136;16.886;2023-05-07T07:26:05;3.22;;;3.03;;
6955;SDS011;50345;51.136;16.886;2023-05-07T07:28:31;3.00;;;2.70;;
6955;SDS011;50345;51.136;16.886;2023-05-07T07:30:57;2.87;;;2.67;;
6955;SDS011;50345;51.136;16.886;2023-05-07T07:33:22;5.00;;;2.70;;
6955;SDS011;50345;51.136;16.886;2023-05-07T07:35:48;3.50;;;3.20;;
6955;SDS011;50345;51.136;16.886;2023-05-07T07:38:14;2.53;;;2.33;;
6955;SDS011;50345;51.136;16.886;2023-05-07T07:40:39;2.93;;;2.73;;
6955;SDS011;50345;51.136;16.886;2023-05-07T07:43:05;2.60;;;2.40;;
6955;SDS011;50345;51.136;16.886;2023-05-07T07:45:31;2.90;;;2.70;;
6955;SDS011;50345;51.136;16.886;2023-05-07T07:47:56;2.70;;;2.50;;
6955;SDS011;50345;51.136;16.886;2023-05-07T07:50:22;2.90;;;2.63;;
6955;SDS011;50345;51.136;16.886;2023-05-07T07:52:48;2.40;;;2.20;;
6955;SDS011;50345;51.136;16.886;2023-05-07T07:55:13;4.00;;;2.87;;
6955;SDS011;50345;51.136;16.886;2023-05-07T07:57:42;3.42;;;3.13;;
6955;SDS011;50345;51.136;16.886;2023-05-07T08:00:08;4.00;;;3.70;;
6955;SDS011;50345;51.136;16.886;2023-05-07T08:02:34;5.85;;;3.55;;
6955;SDS011;50345;51.136;16.886;2023-05-07T08:05:00;2.97;;;2.77;;
6955;SDS011;50345;51.136;16.886;2023-05-07T08:07:25;2.63;;;2.53;;
6955;SDS011;50345;51.136;16.886;2023-05-07T08:09:51;3.40;;;3.10;;
6955;SDS011;50345;51.136;16.886;2023-05-07T08:12:17;3.23;;;3.00;;
6955;SDS011;50345;51.136;16.886;2023-05-07T08:14:43;4.80;;;4.03;;
6955;SDS011;50345;51.136;16.886;2023-05-07T08:17:08;4.67;;;4.27;;
6955;SDS011;50345;51.136;16.886;2023-05-07T08:19:35;4.43;;;4.13;;
6955;SDS011;50345;51.136;16.886;2023-05-07T08:22:00;6.27;;;5.17;;
6955;SDS011;50345;51.136;16.886;2023-05-07T08:24:27;4.28;;;3.88;;
6955;SDS011;50345;51.136;16.886;2023-05-07T08:26:52;4.30;;;4.00;;
6955;SDS011;50345;51.136;16.886;2023-05-07T08:29:18;3.87;;;3.60;;
6955;SDS011;50345;51.136;16.886;2023-05-07T08:31:43;4.43;;;4.03;;
6955;SDS011;50345;51.136;16.886;2023-05-07T08:34:09;7.23;;;3.90;;
6955;SDS011;50345;51.136;16.886;2023-05-07T08:36:34;3.87;;;3.57;;
6955;SDS011;50345;51.136;16.886;2023-05-07T08:39:00;5.10;;;4.63;;
6955;SDS011;50345;51.136;16.886;2023-05-07T08:41:26;5.73;;;5.03;;
6955;SDS011;50345;51.136;16.886;2023-05-07T08:43:51;4.90;;;4.60;;
6955;SDS011;50345;51.136;16.886;2023-05-07T08:46:18;4.47;;;4.07;;
6955;SDS011;50345;51.136;16.886;2023-05-07T08:48:48;5.82;;;5.43;;
6955;SDS011;50345;51.136;16.886;2023-05-07T08:51:15;5.68;;;5.28;;
6955;SDS011;50345;51.136;16.886;2023-05-07T08:53:43;5.22;;;4.72;;
6955;SDS011;50345;51.136;16.886;2023-05-07T08:56:09;4.10;;;3.80;;
6955;SDS011;50345;51.136;16.886;2023-05-07T08:58:35;5.40;;;5.00;;
6955;SDS011;50345;51.136;16.886;2023-05-07T09:01:05;4.87;;;4.50;;
6955;SDS011;50345;51.136;16.886;2023-05-07T09:03:33;4.18;;;3.88;;
6955;SDS011;50345;51.136;16.886;2023-05-07T09:05:58;4.90;;;4.50;;
6955;SDS011;50345;51.136;16.886;2023-05-07T09:08:24;5.07;;;4.67;;
6955;SDS011;50345;51.136;16.886;2023-05-07T09:10:52;5.38;;;4.90;;
6955;SDS011;50345;51.136;16.886;2023-05-07T09:13:18;5.57;;;5.07;;
6955;SDS011;50345;51.136;16.886;2023-05-07T09:15:44;5.30;;;4.80;;
6955;SDS011;50345;51.136;16.886;2023-05-07T09:18:09;7.30;;;5.40;;
6955;SDS011;50345;51.136;16.886;2023-05-07T09:20:39;5.90;;;5.30;;
6955;SDS011;50345;51.136;16.886;2023-05-07T09:23:05;5.93;;;4.38;;
6955;SDS011;50345;51.136;16.886;2023-05-07T09:25:32;5.75;;;5.25;;
6955;SDS011;50345;51.136;16.886;2023-05-07T09:27:59;5.60;;;5.10;;
6955;SDS011;50345;51.136;16.886;2023-05-07T09:30:28;4.32;;;3.92;;
6955;SDS011;50345;51.136;16.886;2023-05-07T09:32:58;5.70;;;4.90;;
6955;SDS011;50345;51.136;16.886;2023-05-07T09:35:25;4.53;;;4.22;;
6955;SDS011;50345;51.136;16.886;2023-05-07T09:37:57;6.85;;;4.32;;
6955;SDS011;50345;51.136;16.886;2023-05-07T09:40:28;4.25;;;3.95;;
6955;SDS011;50345;51.136;16.886;2023-05-07T09:42:54;4.20;;;3.85;;
6955;SDS011;50345;51.136;16.886;2023-05-07T09:45:27;4.33;;;3.93;;
6955;SDS011;50345;51.136;16.886;2023-05-07T09:47:54;5.18;;;4.78;;
6955;SDS011;50345;51.136;16.886;2023-05-07T09:50:25;5.00;;;4.50;;
6955;SDS011;50345;51.136;16.886;2023-05-07T09:52:54;4.55;;;4.15;;
6955;SDS011;50345;51.136;16.886;2023-05-07T09:55:20;4.15;;;3.85;;
6955;SDS011;50345;51.136;16.886;2023-05-07T09:57:48;4.85;;;4.50;;
6955;SDS011;50345;51.136;16.886;2023-05-07T10:00:17;6.68;;;5.50;;
6955;SDS011;50345;51.136;16.886;2023-05-07T10:02:45;4.75;;;4.45;;
6955;SDS011;50345;51.136;16.886;2023-05-07T10:05:20;5.72;;;5.22;;
6955;SDS011;50345;51.136;16.886;2023-05-07T10:07:47;5.82;;;5.35;;
6955;SDS011;50345;51.136;16.886;2023-05-07T10:10:13;4.85;;;4.47;;
6955;SDS011;50345;51.136;16.886;2023-05-07T10:12:40;5.20;;;4.70;;
6955;SDS011;50345;51.136;16.886;2023-05-07T10:15:07;7.95;;;5.00;;
6955;SDS011;50345;51.136;16.886;2023-05-07T10:17:37;5.60;;;5.10;;
6955;SDS011;50345;51.136;16.886;2023-05-07T10:20:04;5.28;;;4.88;;
6955;SDS011;50345;51.136;16.886;2023-05-07T10:22:43;5.25;;;4.85;;
6955;SDS011;50345;51.136;16.886;2023-05-07T10:25:20;5.50;;;5.00;;
6955;SDS011;50345;51.136;16.886;2023-05-07T10:27:50;6.60;;;6.00;;
6955;SDS011;50345;51.136;16.886;2023-05-07T10:30:26;5.60;;;5.10;;
6955;SDS011;50345;51.136;16.886;2023-05-07T10:33:14;4.05;;;3.75;;
6955;SDS011;50345;51.136;16.886;2023-05-07T10:35:42;4.30;;;3.90;;
6955;SDS011;50345;51.136;16.886;2023-05-07T10:38:10;4.45;;;4.03;;
6955;SDS011;50345;51.136;16.886;2023-05-07T10:40:36;5.72;;;4.35;;
6955;SDS011;50345;51.136;16.886;2023-05-07T10:43:02;4.50;;;3.57;;
6955;SDS011;50345;51.136;16.886;2023-05-07T10:45:32;4.38;;;3.97;;
6955;SDS011;50345;51.136;16.886;2023-05-07T10:48:14;4.75;;;4.45;;
6955;SDS011;50345;51.136;16.886;2023-05-07T10:50:41;4.28;;;3.95;;
6955;SDS011;50345;51.136;16.886;2023-05-07T10:55:43;3.97;;;3.67;;
6955;SDS011;50345;51.136;16.886;2023-05-07T11:00:50;4.50;;;4.10;;
6955;SDS011;50345;51.136;16.886;2023-05-07T11:03:20;5.00;;;4.60;;
6955;SDS011;50345;51.136;16.886;2023-05-07T11:05:47;4.57;;;4.07;;
6955;SDS011;50345;51.136;16.886;2023-05-07T11:11:16;3.90;;;3.60;;
6955;SDS011;50345;51.136;16.886;2023-05-07T11:13:43;4.67;;;3.23;;
6955;SDS011;50345;51.136;16.886;2023-05-07T11:16:19;3.35;;;3.15;;
6955;SDS011;50345;51.136;16.886;2023-05-07T11:18:46;3.70;;;3.40;;
6955;SDS011;50345;51.136;16.886;2023-05-07T11:21:35;4.32;;;3.40;;
6955;SDS011;50345;51.136;16.886;2023-05-07T11:24:08;4.00;;;3.38;;
6955;SDS011;50345;51.136;16.886;2023-05-07T11:26:48;3.78;;;3.45;;
6955;SDS011;50345;51.136;16.886;2023-05-07T11:29:15;3.08;;;2.88;;
6955;SDS011;50345;51.136;16.886;2023-05-07T11:31:48;3.47;;;3.17;;
6955;SDS011;50345;51.136;16.886;2023-05-07T11:34:25;3.67;;;3.38;;
6955;SDS011;50345;51.136;16.886;2023-05-07T11:36:51;4.32;;;3.80;;
6955;SDS011;50345;51.136;16.886;2023-05-07T11:39:51;3.92;;;3.53;;
6955;SDS011;50345;51.136;16.886;2023-05-07T11:42:28;3.75;;;3.45;;
6955;SDS011;50345;51.136;16.886;2023-05-07T11:44:55;4.15;;;3.85;;
6955;SDS011;50345;51.136;16.886;2023-05-07T11:47:21;3.83;;;3.53;;
6955;SDS011;50345;51.136;16.886;2023-05-07T11:49:53;3.80;;;3.50;;
6955;SDS011;50345;51.136;16.886;2023-05-07T11:52:20;4.22;;;3.88;;
6955;SDS011;50345;51.136;16.886;2023-05-07T11:54:50;4.22;;;3.92;;
6955;SDS011;50345;51.136;16.886;2023-05-07T11:57:17;5.05;;;4.65;;
6955;SDS011;50345;51.136;16.886;2023-05-07T11:59:42;3.47;;;3.27;;
6955;SDS011;50345;51.136;16.886;2023-05-07T12:02:14;4.25;;;3.95;;
6955;SDS011;50345;51.136;16.886;2023-05-07T12:04:40;4.65;;;4.25;;
6955;SDS011;50345;51.136;16.886;2023-05-07T12:07:12;4.32;;;4.00;;
6955;SDS011;50345;51.136;16.886;2023-05-07T12:09:43;3.50;;;3.20;;
6955;SDS011;50345;51.136;16.886;2023-05-07T12:12:09;3.67;;;3.38;;
6955;SDS011;50345;51.136;16.886;2023-05-07T12:14:39;3.15;;;2.95;;
6955;SDS011;50345;51.136;16.886;2023-05-07T12:17:06;3.70;;;3.40;;
6955;SDS011;50345;51.136;16.886;2023-05-07T12:19:33;3.10;;;2.90;;
6955;SDS011;50345;51.136;16.886;2023-05-07T12:21:59;2.95;;;2.75;;
6955;SDS011;50345;51.136;16.886;2023-05-07T12:24:26;5.63;;;3.10;;
6955;SDS011;50345;51.136;16.886;2023-05-07T12:26:52;4.80;;;3.20;;
6955;SDS011;50345;51.136;16.886;2023-05-07T12:29:21;5.63;;;3.13;;
6955;SDS011;50345;51.136;16.886;2023-05-07T12:31:47;3.13;;;2.92;;
6955;SDS011;50345;51.136;16.886;2023-05-07T12:34:14;3.40;;;3.10;;
6955;SDS011;50345;51.136;16.886;2023-05-07T12:36:40;3.50;;;2.78;;
6955;SDS011;50345;51.136;16.886;2023-05-07T12:39:06;3.80;;;3.60;;
6955;SDS011;50345;51.136;16.886;2023-05-07T12:41:36;3.63;;;3.33;;
6955;SDS011;50345;51.136;16.886;2023-05-07T12:44:23;3.28;;;3.00;;
6955;SDS011;50345;51.136;16.886;2023-05-07T12:46:51;3.85;;;3.55;;
6955;SDS011;50345;51.136;16.886;2023-05-07T12:49:16;3.30;;;2.83;;
6955;SDS011;50345;51.136;16.886;2023-05-07T12:51:48;3.85;;;3.55;;
6955;SDS011;50345;51.136;16.886;2023-05-07T12:54:30;3.58;;;3.33;;
6955;SDS011;50345;51.136;16.886;2023-05-07T12:57:00;4.60;;;4.05;;
6955;SDS011;50345;51.136;16.886;2023-05-07T13:02:06;4.07;;;3.88;;
6955;SDS011;50345;51.136;16.886;2023-05-07T13:04:32;4.18;;;3.63;;
6955;SDS011;50345;51.136;16.886;2023-05-07T13:06:59;3.53;;;3.33;;
6955;SDS011;50345;51.136;16.886;2023-05-07T13:09:25;5.03;;;4.63;;
6955;SDS011;50345;51.136;16.886;2023-05-07T13:11:50;4.80;;;4.40;;
6955;SDS011;50345;51.136;16.886;2023-05-07T13:14:16;4.77;;;4.37;;
6955;SDS011;50345;51.136;16.886;2023-05-07T13:16:42;3.90;;;3.60;;
6955;SDS011;50345;51.136;16.886;2023-05-07T13:19:07;3.60;;;3.40;;
6955;SDS011;50345;51.136;16.886;2023-05-07T13:21:33;4.20;;;3.90;;
6955;SDS011;50345;51.136;16.886;2023-05-07T13:23:58;4.20;;;3.90;;
6955;SDS011;50345;51.136;16.886;2023-05-07T13:26:24;4.67;;;4.30;;
6955;SDS011;50345;51.136;16.886;2023-05-07T13:28:51;5.30;;;4.90;;
6955;SDS011;50345;51.136;16.886;2023-05-07T13:31:17;4.10;;;3.80;;
6955;SDS011;50345;51.136;16.886;2023-05-07T13:33:43;4.87;;;4.57;;
6955;SDS011;50345;51.136;16.886;2023-05-07T13:36:08;4.73;;;4.40;;
6955;SDS011;50345;51.136;16.886;2023-05-07T13:38:34;4.53;;;4.23;;
6955;SDS011;50345;51.136;16.886;2023-05-07T13:41:00;5.40;;;5.00;;
6955;SDS011;50345;51.136;16.886;2023-05-07T13:43:25;5.10;;;4.70;;
6955;SDS011;50345;51.136;16.886;2023-05-07T13:45:51;4.07;;;3.77;;
6955;SDS011;50345;51.136;16.886;2023-05-07T13:48:16;4.77;;;4.37;;
6955;SDS011;50345;51.136;16.886;2023-05-07T13:50:42;4.70;;;4.30;;
6955;SDS011;50345;51.136;16.886;2023-05-07T13:53:08;5.30;;;4.90;;
6955;SDS011;50345;51.136;16.886;2023-05-07T13:55:33;4.90;;;4.50;;
6955;SDS011;50345;51.136;16.886;2023-05-07T13:58:00;5.13;;;4.73;;
6955;SDS011;50345;51.136;16.886;2023-05-07T14:00:27;4.18;;;3.88;;
6955;SDS011;50345;51.136;16.886;2023-05-07T14:02:54;4.93;;;4.53;;
6955;SDS011;50345;51.136;16.886;2023-05-07T14:05:20;4.10;;;3.80;;
6955;SDS011;50345;51.136;16.886;2023-05-07T14:07:48;4.72;;;4.32;;
6955;SDS011;50345;51.136;16.886;2023-05-07T14:10:16;3.83;;;3.63;;
6955;SDS011;50345;51.136;16.886;2023-05-07T14:12:43;4.20;;;3.90;;
6955;SDS011;50345;51.136;16.886;2023-05-07T14:15:09;5.00;;;4.60;;
6955;SDS011;50345;51.136;16.886;2023-05-07T14:17:35;4.50;;;4.20;;
6955;SDS011;50345;51.136;16.886;2023-05-07T14:20:01;4.50;;;4.20;;
6955;SDS011;50345;51.136;16.886;2023-05-07T14:22:27;4.27;;;3.97;;
6955;SDS011;50345;51.136;16.886;2023-05-07T14:24:52;4.47;;;4.07;;
6955;SDS011;50345;51.136;16.886;2023-05-07T14:27:18;3.43;;;3.13;;
6955;SDS011;50345;51.136;16.886;2023-05-07T14:29:43;5.67;;;5.17;;
6955;SDS011;50345;51.136;16.886;2023-05-07T14:32:10;4.00;;;3.70;;
6955;SDS011;50345;51.136;16.886;2023-05-07T14:34:36;3.87;;;3.57;;
6955;SDS011;50345;51.136;16.886;2023-05-07T14:37:01;4.33;;;3.93;;
6955;SDS011;50345;51.136;16.886;2023-05-07T14:39:27;3.70;;;3.40;;
6955;SDS011;50345;51.136;16.886;2023-05-07T14:41:52;4.30;;;4.00;;
6955;SDS011;50345;51.136;16.886;2023-05-07T14:44:19;4.07;;;3.67;;
6955;SDS011;50345;51.136;16.886;2023-05-07T14:46:45;5.07;;;4.68;;
6955;SDS011;50345;51.136;16.886;2023-05-07T14:49:11;4.00;;;3.60;;
6955;SDS011;50345;51.136;16.886;2023-05-07T14:51:42;4.10;;;3.80;;
6955;SDS011;50345;51.136;16.886;2023-05-07T14:54:11;4.18;;;3.88;;
6955;SDS011;50345;51.136;16.886;2023-05-07T14:56:41;3.83;;;3.53;;